sensor_id;sensor_type;location;lat;lon;timestamp;P1;durP1;ratioP1;P2;durP2;ratioP2
63983;SDS011;50182;47.964;24.022;2022-07-04T00:00:57;6.89;;;5.93;;
63983;SDS011;50182;47.964;24.022;2022-07-04T00:02:00;10.21;;;6.21;;
63983;SDS011;50182;47.964;24.022;2022-07-04T00:03:03;8.09;;;6.58;;
63983;SDS011;50182;47.964;24.022;2022-07-04T00:04:05;8.16;;;6.87;;
63983;SDS011;50182;47.964;24.022;2022-07-04T00:05:08;7.15;;;6.34;;
63983;SDS011;50182;47.964;24.022;2022-07-04T00:06:12;23.86;;;7.06;;
63983;SDS011;50182;47.964;24.022;2022-07-04T00:07:14;7.39;;;5.93;;
63983;SDS011;50182;47.964;24.022;2022-07-04T00:08:17;7.82;;;7.16;;
63983;SDS011;50182;47.964;24.022;2022-07-04T00:09:20;7.67;;;6.27;;
63983;SDS011;50182;47.964;24.022;2022-07-04T00:10:23;11.04;;;7.06;;
63983;SDS011;50182;47.964;24.022;2022-07-04T00:11:25;8.53;;;7.59;;
63983;SDS011;50182;47.964;24.022;2022-07-04T00:12:27;8.93;;;7.24;;
63983;SDS011;50182;47.964;24.022;2022-07-04T00:13:30;12.85;;;7.19;;
63983;SDS011;50182;47.964;24.022;2022-07-04T00:14:32;17.25;;;6.73;;
63983;SDS011;50182;47.964;24.022;2022-07-04T00:15:35;8.10;;;6.98;;
63983;SDS011;50182;47.964;24.022;2022-07-04T00:16:37;14.77;;;7.40;;
63983;SDS011;50182;47.964;24.022;2022-07-04T00:17:40;7.23;;;6.71;;
63983;SDS011;50182;47.964;24.022;2022-07-04T00:18:42;9.33;;;7.48;;
63983;SDS011;50182;47.964;24.022;2022-07-04T00:19:45;8.94;;;7.39;;
63983;SDS011;50182;47.964;24.022;2022-07-04T00:20:48;8.19;;;7.45;;
63983;SDS011;50182;47.964;24.022;2022-07-04T00:21:50;10.28;;;7.16;;
63983;SDS011;50182;47.964;24.022;2022-07-04T00:22:54;7.52;;;7.01;;
63983;SDS011;50182;47.964;24.022;2022-07-04T00:23:57;14.51;;;7.42;;
63983;SDS011;50182;47.964;24.022;2022-07-04T00:24:59;16.13;;;7.88;;
63983;SDS011;50182;47.964;24.022;2022-07-04T00:26:02;10.92;;;7.35;;
63983;SDS011;50182;47.964;24.022;2022-07-04T00:27:04;10.03;;;7.61;;
63983;SDS011;50182;47.964;24.022;2022-07-04T00:28:07;8.75;;;7.21;;
63983;SDS011;50182;47.964;24.022;2022-07-04T00:29:10;16.99;;;8.06;;
63983;SDS011;50182;47.964;24.022;2022-07-04T00:30:14;14.16;;;7.01;;
63983;SDS011;50182;47.964;24.022;2022-07-04T00:31:16;10.05;;;7.20;;
63983;SDS011;50182;47.964;24.022;2022-07-04T00:32:18;7.92;;;7.09;;
63983;SDS011;50182;47.964;24.022;2022-07-04T00:33:21;7.94;;;7.27;;
63983;SDS011;50182;47.964;24.022;2022-07-04T00:34:23;8.55;;;6.93;;
63983;SDS011;50182;47.964;24.022;2022-07-04T00:35:25;12.16;;;7.21;;
63983;SDS011;50182;47.964;24.022;2022-07-04T00:36:28;8.76;;;7.32;;
63983;SDS011;50182;47.964;24.022;2022-07-04T00:37:30;11.85;;;7.12;;
63983;SDS011;50182;47.964;24.022;2022-07-04T00:38:33;8.18;;;7.46;;
63983;SDS011;50182;47.964;24.022;2022-07-04T00:39:36;8.31;;;7.32;;
63983;SDS011;50182;47.964;24.022;2022-07-04T00:40:38;13.14;;;7.21;;
63983;SDS011;50182;47.964;24.022;2022-07-04T00:41:41;10.61;;;7.49;;
63983;SDS011;50182;47.964;24.022;2022-07-04T00:42:43;8.93;;;7.17;;
63983;SDS011;50182;47.964;24.022;2022-07-04T00:44:03;8.61;;;7.82;;
63983;SDS011;50182;47.964;24.022;2022-07-04T00:45:10;12.71;;;7.93;;
63983;SDS011;50182;47.964;24.022;2022-07-04T00:46:13;9.43;;;8.31;;
63983;SDS011;50182;47.964;24.022;2022-07-04T00:47:15;8.84;;;7.72;;
63983;SDS011;50182;47.964;24.022;2022-07-04T00:48:17;8.27;;;7.64;;
63983;SDS011;50182;47.964;24.022;2022-07-04T00:49:20;15.93;;;7.89;;
63983;SDS011;50182;47.964;24.022;2022-07-04T00:50:23;8.68;;;7.94;;
63983;SDS011;50182;47.964;24.022;2022-07-04T00:51:26;13.62;;;7.91;;
63983;SDS011;50182;47.964;24.022;2022-07-04T00:52:29;15.33;;;8.09;;
63983;SDS011;50182;47.964;24.022;2022-07-04T00:53:32;10.14;;;7.60;;
63983;SDS011;50182;47.964;24.022;2022-07-04T00:54:34;9.77;;;8.09;;
63983;SDS011;50182;47.964;24.022;2022-07-04T00:55:37;10.06;;;7.11;;
63983;SDS011;50182;47.964;24.022;2022-07-04T00:56:41;10.81;;;7.92;;
63983;SDS011;50182;47.964;24.022;2022-07-04T00:57:45;8.06;;;7.36;;
63983;SDS011;50182;47.964;24.022;2022-07-04T00:58:47;11.02;;;8.26;;
63983;SDS011;50182;47.964;24.022;2022-07-04T00:59:50;9.34;;;7.59;;
63983;SDS011;50182;47.964;24.022;2022-07-04T01:00:52;12.08;;;8.02;;
63983;SDS011;50182;47.964;24.022;2022-07-04T01:01:55;17.19;;;7.76;;
63983;SDS011;50182;47.964;24.022;2022-07-04T01:02:57;8.60;;;7.83;;
63983;SDS011;50182;47.964;24.022;2022-07-04T01:04:05;7.60;;;7.19;;
63983;SDS011;50182;47.964;24.022;2022-07-04T01:05:05;12.85;;;7.72;;
63983;SDS011;50182;47.964;24.022;2022-07-04T01:06:08;11.14;;;7.98;;
63983;SDS011;50182;47.964;24.022;2022-07-04T01:07:11;10.17;;;8.49;;
63983;SDS011;50182;47.964;24.022;2022-07-04T01:08:14;7.67;;;7.02;;
63983;SDS011;50182;47.964;24.022;2022-07-04T01:09:16;8.33;;;7.55;;
63983;SDS011;50182;47.964;24.022;2022-07-04T01:10:20;14.24;;;8.27;;
63983;SDS011;50182;47.964;24.022;2022-07-04T01:11:25;8.65;;;6.98;;
63983;SDS011;50182;47.964;24.022;2022-07-04T01:12:28;12.83;;;7.77;;
63983;SDS011;50182;47.964;24.022;2022-07-04T01:13:31;15.52;;;7.53;;
63983;SDS011;50182;47.964;24.022;2022-07-04T01:14:36;17.22;;;8.94;;
63983;SDS011;50182;47.964;24.022;2022-07-04T01:15:41;10.79;;;8.41;;
63983;SDS011;50182;47.964;24.022;2022-07-04T01:16:43;11.93;;;8.21;;
63983;SDS011;50182;47.964;24.022;2022-07-04T01:17:46;13.40;;;8.33;;
63983;SDS011;50182;47.964;24.022;2022-07-04T01:18:48;11.34;;;7.45;;
63983;SDS011;50182;47.964;24.022;2022-07-04T01:19:51;15.28;;;8.20;;
63983;SDS011;50182;47.964;24.022;2022-07-04T01:20:53;11.08;;;8.51;;
63983;SDS011;50182;47.964;24.022;2022-07-04T01:21:56;9.31;;;8.17;;
63983;SDS011;50182;47.964;24.022;2022-07-04T01:22:59;9.51;;;8.41;;
63983;SDS011;50182;47.964;24.022;2022-07-04T01:24:01;8.84;;;7.96;;
63983;SDS011;50182;47.964;24.022;2022-07-04T01:25:04;9.69;;;8.51;;
63983;SDS011;50182;47.964;24.022;2022-07-04T01:26:08;10.40;;;8.05;;
63983;SDS011;50182;47.964;24.022;2022-07-04T01:27:10;8.51;;;7.87;;
63983;SDS011;50182;47.964;24.022;2022-07-04T01:28:12;15.63;;;8.19;;
63983;SDS011;50182;47.964;24.022;2022-07-04T01:30:37;9.61;;;8.36;;
63983;SDS011;50182;47.964;24.022;2022-07-04T01:31:40;13.39;;;8.91;;
63983;SDS011;50182;47.964;24.022;2022-07-04T01:32:42;8.51;;;7.85;;
63983;SDS011;50182;47.964;24.022;2022-07-04T01:33:45;11.53;;;8.40;;
63983;SDS011;50182;47.964;24.022;2022-07-04T01:34:47;10.19;;;8.67;;
63983;SDS011;50182;47.964;24.022;2022-07-04T01:35:49;13.01;;;8.89;;
63983;SDS011;50182;47.964;24.022;2022-07-04T01:36:52;11.65;;;8.51;;
63983;SDS011;50182;47.964;24.022;2022-07-04T01:37:55;16.82;;;8.16;;
63983;SDS011;50182;47.964;24.022;2022-07-04T01:38:57;12.41;;;9.31;;
63983;SDS011;50182;47.964;24.022;2022-07-04T01:39:59;10.46;;;8.82;;
63983;SDS011;50182;47.964;24.022;2022-07-04T01:41:02;10.69;;;9.31;;
63983;SDS011;50182;47.964;24.022;2022-07-04T01:42:05;8.95;;;8.24;;
63983;SDS011;50182;47.964;24.022;2022-07-04T01:43:08;10.59;;;9.03;;
63983;SDS011;50182;47.964;24.022;2022-07-04T01:44:10;11.36;;;8.62;;
63983;SDS011;50182;47.964;24.022;2022-07-04T01:45:13;9.31;;;8.13;;
63983;SDS011;50182;47.964;24.022;2022-07-04T01:46:16;9.79;;;8.07;;
63983;SDS011;50182;47.964;24.022;2022-07-04T01:47:19;11.65;;;8.37;;
63983;SDS011;50182;47.964;24.022;2022-07-04T01:48:21;10.61;;;8.93;;
63983;SDS011;50182;47.964;24.022;2022-07-04T01:49:23;10.39;;;8.28;;
63983;SDS011;50182;47.964;24.022;2022-07-04T01:50:27;13.69;;;8.13;;
63983;SDS011;50182;47.964;24.022;2022-07-04T01:51:29;10.46;;;8.70;;
63983;SDS011;50182;47.964;24.022;2022-07-04T01:52:31;13.70;;;8.79;;
63983;SDS011;50182;47.964;24.022;2022-07-04T01:53:39;9.70;;;8.28;;
63983;SDS011;50182;47.964;24.022;2022-07-04T01:54:39;12.39;;;8.42;;
63983;SDS011;50182;47.964;24.022;2022-07-04T01:55:41;11.95;;;8.29;;
63983;SDS011;50182;47.964;24.022;2022-07-04T01:56:45;9.66;;;8.60;;
63983;SDS011;50182;47.964;24.022;2022-07-04T01:57:48;16.77;;;8.86;;
63983;SDS011;50182;47.964;24.022;2022-07-04T01:58:50;13.41;;;8.09;;
63983;SDS011;50182;47.964;24.022;2022-07-04T01:59:53;9.85;;;8.23;;
63983;SDS011;50182;47.964;24.022;2022-07-04T02:00:55;11.91;;;8.39;;
63983;SDS011;50182;47.964;24.022;2022-07-04T02:01:58;10.20;;;9.09;;
63983;SDS011;50182;47.964;24.022;2022-07-04T02:03:01;10.08;;;8.90;;
63983;SDS011;50182;47.964;24.022;2022-07-04T02:04:04;16.45;;;8.77;;
63983;SDS011;50182;47.964;24.022;2022-07-04T02:05:08;11.84;;;8.75;;
63983;SDS011;50182;47.964;24.022;2022-07-04T02:06:12;10.97;;;9.17;;
63983;SDS011;50182;47.964;24.022;2022-07-04T02:07:35;10.24;;;8.91;;
63983;SDS011;50182;47.964;24.022;2022-07-04T02:08:37;10.11;;;8.88;;
63983;SDS011;50182;47.964;24.022;2022-07-04T02:09:40;12.83;;;8.94;;
63983;SDS011;50182;47.964;24.022;2022-07-04T02:10:42;10.17;;;8.33;;
63983;SDS011;50182;47.964;24.022;2022-07-04T02:11:45;11.12;;;9.50;;
63983;SDS011;50182;47.964;24.022;2022-07-04T02:12:48;14.26;;;9.45;;
63983;SDS011;50182;47.964;24.022;2022-07-04T02:13:51;10.53;;;8.87;;
63983;SDS011;50182;47.964;24.022;2022-07-04T02:14:53;8.55;;;7.81;;
63983;SDS011;50182;47.964;24.022;2022-07-04T02:15:56;9.80;;;8.93;;
63983;SDS011;50182;47.964;24.022;2022-07-04T02:16:58;9.38;;;8.41;;
63983;SDS011;50182;47.964;24.022;2022-07-04T02:18:06;14.37;;;8.88;;
63983;SDS011;50182;47.964;24.022;2022-07-04T02:19:06;10.29;;;9.01;;
63983;SDS011;50182;47.964;24.022;2022-07-04T02:20:09;15.72;;;9.55;;
63983;SDS011;50182;47.964;24.022;2022-07-04T02:21:12;12.18;;;8.28;;
63983;SDS011;50182;47.964;24.022;2022-07-04T02:22:15;14.53;;;9.18;;
63983;SDS011;50182;47.964;24.022;2022-07-04T02:23:17;13.66;;;8.40;;
63983;SDS011;50182;47.964;24.022;2022-07-04T02:24:20;9.67;;;8.81;;
63983;SDS011;50182;47.964;24.022;2022-07-04T02:25:22;11.03;;;9.93;;
63983;SDS011;50182;47.964;24.022;2022-07-04T02:26:29;9.34;;;8.57;;
63983;SDS011;50182;47.964;24.022;2022-07-04T02:27:32;13.01;;;9.58;;
63983;SDS011;50182;47.964;24.022;2022-07-04T02:28:34;18.63;;;9.09;;
63983;SDS011;50182;47.964;24.022;2022-07-04T02:29:36;11.31;;;9.31;;
63983;SDS011;50182;47.964;24.022;2022-07-04T02:30:39;10.95;;;9.97;;
63983;SDS011;50182;47.964;24.022;2022-07-04T02:31:41;10.04;;;9.07;;
63983;SDS011;50182;47.964;24.022;2022-07-04T02:32:44;13.08;;;9.68;;
63983;SDS011;50182;47.964;24.022;2022-07-04T02:33:47;10.07;;;8.93;;
63983;SDS011;50182;47.964;24.022;2022-07-04T02:34:49;19.44;;;9.25;;
63983;SDS011;50182;47.964;24.022;2022-07-04T02:35:51;13.49;;;9.17;;
63983;SDS011;50182;47.964;24.022;2022-07-04T02:36:54;10.18;;;8.40;;
63983;SDS011;50182;47.964;24.022;2022-07-04T02:37:56;10.22;;;9.00;;
63983;SDS011;50182;47.964;24.022;2022-07-04T02:38:59;9.92;;;8.61;;
63983;SDS011;50182;47.964;24.022;2022-07-04T02:40:02;15.95;;;9.44;;
63983;SDS011;50182;47.964;24.022;2022-07-04T02:41:05;12.69;;;9.99;;
63983;SDS011;50182;47.964;24.022;2022-07-04T02:42:08;13.91;;;9.66;;
63983;SDS011;50182;47.964;24.022;2022-07-04T02:43:11;11.28;;;9.36;;
63983;SDS011;50182;47.964;24.022;2022-07-04T02:44:13;10.04;;;9.21;;
63983;SDS011;50182;47.964;24.022;2022-07-04T02:45:17;12.93;;;9.69;;
63983;SDS011;50182;47.964;24.022;2022-07-04T02:46:21;10.11;;;9.16;;
63983;SDS011;50182;47.964;24.022;2022-07-04T02:47:24;11.44;;;8.96;;
63983;SDS011;50182;47.964;24.022;2022-07-04T02:48:28;10.00;;;9.09;;
63983;SDS011;50182;47.964;24.022;2022-07-04T02:49:31;10.47;;;9.53;;
63983;SDS011;50182;47.964;24.022;2022-07-04T02:50:35;10.56;;;9.49;;
63983;SDS011;50182;47.964;24.022;2022-07-04T02:51:38;12.54;;;9.59;;
63983;SDS011;50182;47.964;24.022;2022-07-04T02:52:42;13.86;;;9.23;;
63983;SDS011;50182;47.964;24.022;2022-07-04T02:53:45;15.89;;;8.99;;
63983;SDS011;50182;47.964;24.022;2022-07-04T02:54:49;18.46;;;9.85;;
63983;SDS011;50182;47.964;24.022;2022-07-04T02:55:52;12.75;;;9.06;;
63983;SDS011;50182;47.964;24.022;2022-07-04T02:56:56;11.68;;;8.84;;
63983;SDS011;50182;47.964;24.022;2022-07-04T02:57:59;12.81;;;9.33;;
63983;SDS011;50182;47.964;24.022;2022-07-04T02:59:02;13.19;;;9.66;;
63983;SDS011;50182;47.964;24.022;2022-07-04T03:00:06;9.79;;;8.70;;
63983;SDS011;50182;47.964;24.022;2022-07-04T03:01:10;10.08;;;9.15;;
63983;SDS011;50182;47.964;24.022;2022-07-04T03:02:13;9.73;;;8.77;;
63983;SDS011;50182;47.964;24.022;2022-07-04T03:03:17;10.47;;;9.14;;
63983;SDS011;50182;47.964;24.022;2022-07-04T03:04:20;10.35;;;8.84;;
63983;SDS011;50182;47.964;24.022;2022-07-04T03:05:24;13.53;;;8.88;;
63983;SDS011;50182;47.964;24.022;2022-07-04T03:06:27;9.92;;;9.20;;
63983;SDS011;50182;47.964;24.022;2022-07-04T03:07:30;12.62;;;8.62;;
63983;SDS011;50182;47.964;24.022;2022-07-04T03:08:34;18.39;;;9.42;;
63983;SDS011;50182;47.964;24.022;2022-07-04T03:09:37;11.76;;;9.33;;
63983;SDS011;50182;47.964;24.022;2022-07-04T03:10:41;11.03;;;8.79;;
63983;SDS011;50182;47.964;24.022;2022-07-04T03:11:44;10.75;;;9.56;;
63983;SDS011;50182;47.964;24.022;2022-07-04T03:12:47;10.76;;;9.68;;
63983;SDS011;50182;47.964;24.022;2022-07-04T03:13:51;14.56;;;8.51;;
63983;SDS011;50182;47.964;24.022;2022-07-04T03:15:58;10.01;;;9.06;;
63983;SDS011;50182;47.964;24.022;2022-07-04T03:17:03;12.73;;;8.73;;
63983;SDS011;50182;47.964;24.022;2022-07-04T03:18:06;10.49;;;9.04;;
63983;SDS011;50182;47.964;24.022;2022-07-04T03:19:09;11.52;;;9.81;;
63983;SDS011;50182;47.964;24.022;2022-07-04T03:20:13;10.71;;;8.48;;
63983;SDS011;50182;47.964;24.022;2022-07-04T03:21:17;11.17;;;8.98;;
63983;SDS011;50182;47.964;24.022;2022-07-04T03:22:20;12.91;;;9.29;;
63983;SDS011;50182;47.964;24.022;2022-07-04T03:23:24;16.63;;;8.45;;
63983;SDS011;50182;47.964;24.022;2022-07-04T03:24:27;15.39;;;8.66;;
63983;SDS011;50182;47.964;24.022;2022-07-04T03:25:31;13.14;;;8.57;;
63983;SDS011;50182;47.964;24.022;2022-07-04T03:26:35;10.32;;;8.05;;
63983;SDS011;50182;47.964;24.022;2022-07-04T03:27:38;10.60;;;8.76;;
63983;SDS011;50182;47.964;24.022;2022-07-04T03:28:41;12.34;;;8.95;;
63983;SDS011;50182;47.964;24.022;2022-07-04T03:29:45;11.44;;;8.83;;
63983;SDS011;50182;47.964;24.022;2022-07-04T03:30:48;16.14;;;9.39;;
63983;SDS011;50182;47.964;24.022;2022-07-04T03:31:52;16.14;;;9.79;;
63983;SDS011;50182;47.964;24.022;2022-07-04T03:32:55;13.69;;;9.29;;
63983;SDS011;50182;47.964;24.022;2022-07-04T03:33:59;10.61;;;9.39;;
63983;SDS011;50182;47.964;24.022;2022-07-04T03:35:02;14.26;;;9.46;;
63983;SDS011;50182;47.964;24.022;2022-07-04T03:36:05;9.89;;;8.77;;
63983;SDS011;50182;47.964;24.022;2022-07-04T03:37:09;10.32;;;9.22;;
63983;SDS011;50182;47.964;24.022;2022-07-04T03:38:12;11.62;;;9.16;;
63983;SDS011;50182;47.964;24.022;2022-07-04T03:39:16;14.93;;;10.03;;
63983;SDS011;50182;47.964;24.022;2022-07-04T03:40:21;10.81;;;9.24;;
63983;SDS011;50182;47.964;24.022;2022-07-04T03:41:26;19.48;;;10.55;;
63983;SDS011;50182;47.964;24.022;2022-07-04T03:42:29;10.30;;;9.11;;
63983;SDS011;50182;47.964;24.022;2022-07-04T03:43:33;9.65;;;8.88;;
63983;SDS011;50182;47.964;24.022;2022-07-04T03:44:36;10.39;;;9.36;;
63983;SDS011;50182;47.964;24.022;2022-07-04T03:45:39;14.27;;;9.91;;
63983;SDS011;50182;47.964;24.022;2022-07-04T03:46:43;12.27;;;9.56;;
63983;SDS011;50182;47.964;24.022;2022-07-04T03:47:46;15.90;;;9.62;;
63983;SDS011;50182;47.964;24.022;2022-07-04T03:48:50;15.54;;;10.09;;
63983;SDS011;50182;47.964;24.022;2022-07-04T03:49:53;9.74;;;8.89;;
63983;SDS011;50182;47.964;24.022;2022-07-04T03:50:56;18.95;;;9.50;;
63983;SDS011;50182;47.964;24.022;2022-07-04T03:52:00;16.93;;;8.78;;
63983;SDS011;50182;47.964;24.022;2022-07-04T03:53:03;15.36;;;9.09;;
63983;SDS011;50182;47.964;24.022;2022-07-04T03:54:07;10.21;;;8.71;;
63983;SDS011;50182;47.964;24.022;2022-07-04T03:55:10;12.43;;;8.91;;
63983;SDS011;50182;47.964;24.022;2022-07-04T03:56:14;10.21;;;9.28;;
63983;SDS011;50182;47.964;24.022;2022-07-04T03:57:17;13.10;;;9.46;;
63983;SDS011;50182;47.964;24.022;2022-07-04T03:58:20;11.66;;;8.85;;
63983;SDS011;50182;47.964;24.022;2022-07-04T03:59:24;10.91;;;9.01;;
63983;SDS011;50182;47.964;24.022;2022-07-04T04:00:28;15.04;;;9.43;;
63983;SDS011;50182;47.964;24.022;2022-07-04T04:01:31;14.87;;;8.59;;
63983;SDS011;50182;47.964;24.022;2022-07-04T04:02:34;18.98;;;9.01;;
63983;SDS011;50182;47.964;24.022;2022-07-04T04:03:38;19.01;;;9.59;;
63983;SDS011;50182;47.964;24.022;2022-07-04T04:04:41;11.81;;;9.36;;
63983;SDS011;50182;47.964;24.022;2022-07-04T04:05:45;15.88;;;9.28;;
63983;SDS011;50182;47.964;24.022;2022-07-04T04:06:49;10.35;;;8.97;;
63983;SDS011;50182;47.964;24.022;2022-07-04T04:07:57;18.48;;;10.46;;
63983;SDS011;50182;47.964;24.022;2022-07-04T04:08:58;12.57;;;9.48;;
63983;SDS011;50182;47.964;24.022;2022-07-04T04:10:02;12.15;;;9.04;;
63983;SDS011;50182;47.964;24.022;2022-07-04T04:11:06;9.17;;;8.35;;
63983;SDS011;50182;47.964;24.022;2022-07-04T04:12:09;13.04;;;9.75;;
63983;SDS011;50182;47.964;24.022;2022-07-04T04:13:13;12.84;;;9.12;;
63983;SDS011;50182;47.964;24.022;2022-07-04T04:14:16;15.74;;;8.69;;
63983;SDS011;50182;47.964;24.022;2022-07-04T04:15:20;14.03;;;8.44;;
63983;SDS011;50182;47.964;24.022;2022-07-04T04:16:23;11.21;;;9.03;;
63983;SDS011;50182;47.964;24.022;2022-07-04T04:17:27;13.33;;;9.20;;
63983;SDS011;50182;47.964;24.022;2022-07-04T04:18:30;13.09;;;8.97;;
63983;SDS011;50182;47.964;24.022;2022-07-04T04:19:33;17.44;;;8.67;;
63983;SDS011;50182;47.964;24.022;2022-07-04T04:20:37;12.19;;;8.83;;
63983;SDS011;50182;47.964;24.022;2022-07-04T04:21:41;9.29;;;8.44;;
63983;SDS011;50182;47.964;24.022;2022-07-04T04:22:44;13.31;;;9.26;;
63983;SDS011;50182;47.964;24.022;2022-07-04T04:23:48;10.73;;;9.22;;
63983;SDS011;50182;47.964;24.022;2022-07-04T04:24:51;11.24;;;8.38;;
63983;SDS011;50182;47.964;24.022;2022-07-04T04:25:54;9.61;;;8.92;;
63983;SDS011;50182;47.964;24.022;2022-07-04T04:26:58;10.44;;;8.64;;
63983;SDS011;50182;47.964;24.022;2022-07-04T04:28:01;8.86;;;8.03;;
63983;SDS011;50182;47.964;24.022;2022-07-04T04:29:05;8.46;;;7.82;;
63983;SDS011;50182;47.964;24.022;2022-07-04T04:30:09;16.69;;;9.09;;
63983;SDS011;50182;47.964;24.022;2022-07-04T04:31:13;14.13;;;9.49;;
63983;SDS011;50182;47.964;24.022;2022-07-04T04:32:17;19.01;;;8.59;;
63983;SDS011;50182;47.964;24.022;2022-07-04T04:33:20;10.55;;;8.51;;
63983;SDS011;50182;47.964;24.022;2022-07-04T04:34:23;24.44;;;8.63;;
63983;SDS011;50182;47.964;24.022;2022-07-04T04:35:27;11.62;;;8.59;;
63983;SDS011;50182;47.964;24.022;2022-07-04T04:36:31;8.81;;;7.85;;
63983;SDS011;50182;47.964;24.022;2022-07-04T04:37:37;10.76;;;8.61;;
63983;SDS011;50182;47.964;24.022;2022-07-04T04:38:40;12.62;;;8.94;;
63983;SDS011;50182;47.964;24.022;2022-07-04T04:39:44;11.67;;;8.27;;
63983;SDS011;50182;47.964;24.022;2022-07-04T04:40:47;8.99;;;8.07;;
63983;SDS011;50182;47.964;24.022;2022-07-04T04:41:50;8.88;;;8.13;;
63983;SDS011;50182;47.964;24.022;2022-07-04T04:42:54;19.58;;;8.53;;
63983;SDS011;50182;47.964;24.022;2022-07-04T04:43:57;11.18;;;7.71;;
63983;SDS011;50182;47.964;24.022;2022-07-04T04:45:01;11.04;;;7.94;;
63983;SDS011;50182;47.964;24.022;2022-07-04T04:46:04;11.53;;;7.99;;
63983;SDS011;50182;47.964;24.022;2022-07-04T04:47:08;19.40;;;8.36;;
63983;SDS011;50182;47.964;24.022;2022-07-04T04:48:11;11.12;;;9.03;;
63983;SDS011;50182;47.964;24.022;2022-07-04T04:49:15;10.33;;;8.74;;
63983;SDS011;50182;47.964;24.022;2022-07-04T04:50:18;17.57;;;9.08;;
63983;SDS011;50182;47.964;24.022;2022-07-04T04:51:22;11.85;;;9.33;;
63983;SDS011;50182;47.964;24.022;2022-07-04T04:52:25;10.28;;;9.03;;
63983;SDS011;50182;47.964;24.022;2022-07-04T04:53:29;12.06;;;9.53;;
63983;SDS011;50182;47.964;24.022;2022-07-04T04:54:33;14.19;;;9.97;;
63983;SDS011;50182;47.964;24.022;2022-07-04T04:55:36;18.84;;;9.54;;
63983;SDS011;50182;47.964;24.022;2022-07-04T04:56:39;12.46;;;9.65;;
63983;SDS011;50182;47.964;24.022;2022-07-04T04:57:43;11.61;;;9.27;;
63983;SDS011;50182;47.964;24.022;2022-07-04T04:58:46;16.82;;;10.21;;
63983;SDS011;50182;47.964;24.022;2022-07-04T04:59:49;15.06;;;10.25;;
63983;SDS011;50182;47.964;24.022;2022-07-04T05:00:53;15.06;;;9.65;;
63983;SDS011;50182;47.964;24.022;2022-07-04T05:01:57;11.10;;;10.09;;
63983;SDS011;50182;47.964;24.022;2022-07-04T05:03:00;14.01;;;10.64;;
63983;SDS011;50182;47.964;24.022;2022-07-04T05:04:04;10.93;;;10.15;;
63983;SDS011;50182;47.964;24.022;2022-07-04T05:05:07;11.33;;;10.28;;
63983;SDS011;50182;47.964;24.022;2022-07-04T05:06:12;14.58;;;11.11;;
63983;SDS011;50182;47.964;24.022;2022-07-04T05:07:15;14.84;;;11.58;;
63983;SDS011;50182;47.964;24.022;2022-07-04T05:08:19;16.81;;;11.61;;
63983;SDS011;50182;47.964;24.022;2022-07-04T05:09:22;20.35;;;10.99;;
63983;SDS011;50182;47.964;24.022;2022-07-04T05:10:27;21.05;;;11.04;;
63983;SDS011;50182;47.964;24.022;2022-07-04T05:11:30;19.57;;;11.11;;
63983;SDS011;50182;47.964;24.022;2022-07-04T05:12:34;17.64;;;12.08;;
63983;SDS011;50182;47.964;24.022;2022-07-04T05:13:37;18.09;;;11.03;;
63983;SDS011;50182;47.964;24.022;2022-07-04T05:14:40;11.91;;;10.51;;
63983;SDS011;50182;47.964;24.022;2022-07-04T05:15:44;14.55;;;11.30;;
63983;SDS011;50182;47.964;24.022;2022-07-04T05:16:47;12.71;;;11.21;;
63983;SDS011;50182;47.964;24.022;2022-07-04T05:17:51;17.96;;;11.40;;
63983;SDS011;50182;47.964;24.022;2022-07-04T05:18:54;15.59;;;10.81;;
63983;SDS011;50182;47.964;24.022;2022-07-04T05:19:57;11.08;;;10.08;;
63983;SDS011;50182;47.964;24.022;2022-07-04T05:21:01;21.20;;;9.83;;
63983;SDS011;50182;47.964;24.022;2022-07-04T05:22:04;12.47;;;11.18;;
63983;SDS011;50182;47.964;24.022;2022-07-04T05:23:08;11.49;;;10.33;;
63983;SDS011;50182;47.964;24.022;2022-07-04T05:24:11;11.31;;;10.25;;
63983;SDS011;50182;47.964;24.022;2022-07-04T05:25:15;16.57;;;11.09;;
63983;SDS011;50182;47.964;24.022;2022-07-04T05:26:19;14.25;;;10.78;;
63983;SDS011;50182;47.964;24.022;2022-07-04T05:27:23;18.04;;;10.66;;
63983;SDS011;50182;47.964;24.022;2022-07-04T05:28:26;13.91;;;10.77;;
63983;SDS011;50182;47.964;24.022;2022-07-04T05:29:29;13.31;;;10.83;;
63983;SDS011;50182;47.964;24.022;2022-07-04T05:30:33;12.40;;;10.26;;
63983;SDS011;50182;47.964;24.022;2022-07-04T05:31:36;13.83;;;10.88;;
63983;SDS011;50182;47.964;24.022;2022-07-04T05:32:40;12.95;;;10.92;;
63983;SDS011;50182;47.964;24.022;2022-07-04T05:33:43;16.09;;;11.91;;
63983;SDS011;50182;47.964;24.022;2022-07-04T05:34:46;13.11;;;10.79;;
63983;SDS011;50182;47.964;24.022;2022-07-04T05:35:50;12.39;;;10.98;;
63983;SDS011;50182;47.964;24.022;2022-07-04T05:36:54;13.14;;;10.76;;
63983;SDS011;50182;47.964;24.022;2022-07-04T05:37:58;13.12;;;10.64;;
63983;SDS011;50182;47.964;24.022;2022-07-04T05:39:01;19.36;;;11.06;;
63983;SDS011;50182;47.964;24.022;2022-07-04T05:40:04;11.93;;;10.67;;
63983;SDS011;50182;47.964;24.022;2022-07-04T05:41:08;15.63;;;11.68;;
63983;SDS011;50182;47.964;24.022;2022-07-04T05:42:11;11.59;;;10.50;;
63983;SDS011;50182;47.964;24.022;2022-07-04T05:43:15;19.02;;;11.57;;
63983;SDS011;50182;47.964;24.022;2022-07-04T05:44:18;17.36;;;11.58;;
63983;SDS011;50182;47.964;24.022;2022-07-04T05:45:21;21.05;;;12.06;;
63983;SDS011;50182;47.964;24.022;2022-07-04T05:46:26;19.73;;;12.36;;
63983;SDS011;50182;47.964;24.022;2022-07-04T05:47:30;14.65;;;11.99;;
63983;SDS011;50182;47.964;24.022;2022-07-04T05:48:33;16.87;;;12.20;;
63983;SDS011;50182;47.964;24.022;2022-07-04T05:49:37;14.63;;;11.91;;
63983;SDS011;50182;47.964;24.022;2022-07-04T05:50:40;20.49;;;12.15;;
63983;SDS011;50182;47.964;24.022;2022-07-04T05:51:44;13.48;;;12.20;;
63983;SDS011;50182;47.964;24.022;2022-07-04T05:52:47;16.25;;;12.58;;
63983;SDS011;50182;47.964;24.022;2022-07-04T05:53:50;22.36;;;12.36;;
63983;SDS011;50182;47.964;24.022;2022-07-04T05:54:54;17.02;;;12.64;;
63983;SDS011;50182;47.964;24.022;2022-07-04T05:55:57;12.58;;;11.13;;
63983;SDS011;50182;47.964;24.022;2022-07-04T05:57:00;11.24;;;10.09;;
63983;SDS011;50182;47.964;24.022;2022-07-04T05:58:04;12.37;;;10.11;;
63983;SDS011;50182;47.964;24.022;2022-07-04T05:59:07;14.49;;;11.02;;
63983;SDS011;50182;47.964;24.022;2022-07-04T06:00:11;14.06;;;10.94;;
63983;SDS011;50182;47.964;24.022;2022-07-04T06:01:15;17.81;;;12.01;;
63983;SDS011;50182;47.964;24.022;2022-07-04T06:02:19;15.98;;;11.79;;
63983;SDS011;50182;47.964;24.022;2022-07-04T06:03:22;25.69;;;11.08;;
63983;SDS011;50182;47.964;24.022;2022-07-04T06:04:26;22.36;;;10.13;;
63983;SDS011;50182;47.964;24.022;2022-07-04T06:05:29;15.65;;;12.37;;
63983;SDS011;50182;47.964;24.022;2022-07-04T06:06:33;14.62;;;11.21;;
63983;SDS011;50182;47.964;24.022;2022-07-04T06:07:36;13.00;;;11.74;;
63983;SDS011;50182;47.964;24.022;2022-07-04T06:08:40;16.64;;;11.31;;
63983;SDS011;50182;47.964;24.022;2022-07-04T06:09:51;14.87;;;10.85;;
63983;SDS011;50182;47.964;24.022;2022-07-04T06:10:58;17.83;;;11.14;;
63983;SDS011;50182;47.964;24.022;2022-07-04T06:12:22;13.41;;;11.29;;
63983;SDS011;50182;47.964;24.022;2022-07-04T06:13:34;13.08;;;11.32;;